sensor_id;sensor_type;location;lat;lon;timestamp;P1;durP1;ratioP1;P2;durP2;ratioP2
73940;SDS011;62294;48.554;10.202;2023-03-26T00:01:14;1.35;;;0.75;;
73940;SDS011;62294;48.554;10.202;2023-03-26T00:03:42;2.83;;;0.85;;
73940;SDS011;62294;48.554;10.202;2023-03-26T00:06:13;2.22;;;0.85;;
73940;SDS011;62294;48.554;10.202;2023-03-26T00:08:41;2.03;;;0.65;;
73940;SDS011;62294;48.554;10.202;2023-03-26T00:11:11;0.98;;;0.80;;
73940;SDS011;62294;48.554;10.202;2023-03-26T00:13:40;1.70;;;0.50;;
73940;SDS011;62294;48.554;10.202;2023-03-26T00:16:12;0.95;;;0.73;;
73940;SDS011;62294;48.554;10.202;2023-03-26T00:18:40;1.23;;;0.77;;
73940;SDS011;62294;48.554;10.202;2023-03-26T00:21:08;4.32;;;0.85;;
73940;SDS011;62294;48.554;10.202;2023-03-26T00:23:37;1.00;;;0.73;;
73940;SDS011;62294;48.554;10.202;2023-03-26T00:26:05;1.30;;;0.93;;
73940;SDS011;62294;48.554;10.202;2023-03-26T00:28:36;1.25;;;0.77;;
73940;SDS011;62294;48.554;10.202;2023-03-26T00:31:06;6.22;;;1.00;;
73940;SDS011;62294;48.554;10.202;2023-03-26T00:33:34;4.05;;;1.30;;
73940;SDS011;62294;48.554;10.202;2023-03-26T00:36:04;0.80;;;0.68;;
73940;SDS011;62294;48.554;10.202;2023-03-26T00:38:35;2.50;;;1.05;;
73940;SDS011;62294;48.554;10.202;2023-03-26T00:41:07;2.55;;;0.80;;
73940;SDS011;62294;48.554;10.202;2023-03-26T00:43:43;1.83;;;0.75;;
73940;SDS011;62294;48.554;10.202;2023-03-26T00:46:14;1.60;;;1.00;;
73940;SDS011;62294;48.554;10.202;2023-03-26T00:48:43;1.52;;;0.70;;
73940;SDS011;62294;48.554;10.202;2023-03-26T00:51:11;1.98;;;0.70;;
73940;SDS011;62294;48.554;10.202;2023-03-26T00:53:43;1.55;;;0.90;;
73940;SDS011;62294;48.554;10.202;2023-03-26T00:56:11;4.10;;;1.55;;
73940;SDS011;62294;48.554;10.202;2023-03-26T00:58:38;3.97;;;1.15;;
73940;SDS011;62294;48.554;10.202;2023-03-26T01:01:06;3.92;;;1.08;;
73940;SDS011;62294;48.554;10.202;2023-03-26T01:03:35;5.93;;;1.10;;
73940;SDS011;62294;48.554;10.202;2023-03-26T01:06:07;2.20;;;1.00;;
73940;SDS011;62294;48.554;10.202;2023-03-26T01:08:40;2.95;;;1.10;;
73940;SDS011;62294;48.554;10.202;2023-03-26T01:11:11;0.70;;;0.57;;
73940;SDS011;62294;48.554;10.202;2023-03-26T01:13:43;1.05;;;0.70;;
73940;SDS011;62294;48.554;10.202;2023-03-26T01:16:27;2.40;;;0.80;;
73940;SDS011;62294;48.554;10.202;2023-03-26T01:18:58;1.60;;;0.88;;
73940;SDS011;62294;48.554;10.202;2023-03-26T01:21:26;0.82;;;0.60;;
73940;SDS011;62294;48.554;10.202;2023-03-26T01:26:34;2.15;;;0.68;;
73940;SDS011;62294;48.554;10.202;2023-03-26T01:29:11;0.63;;;0.55;;
73940;SDS011;62294;48.554;10.202;2023-03-26T01:34:23;1.63;;;0.93;;
73940;SDS011;62294;48.554;10.202;2023-03-26T01:36:57;2.03;;;1.00;;
73940;SDS011;62294;48.554;10.202;2023-03-26T01:39:42;0.70;;;0.70;;
73940;SDS011;62294;48.554;10.202;2023-03-26T01:42:36;4.07;;;1.00;;
73940;SDS011;62294;48.554;10.202;2023-03-26T01:45:13;3.35;;;0.95;;
73940;SDS011;62294;48.554;10.202;2023-03-26T01:47:42;1.90;;;1.10;;
73940;SDS011;62294;48.554;10.202;2023-03-26T01:50:10;1.50;;;0.60;;
73940;SDS011;62294;48.554;10.202;2023-03-26T01:52:37;3.30;;;0.82;;
73940;SDS011;62294;48.554;10.202;2023-03-26T01:55:04;1.63;;;0.82;;
73940;SDS011;62294;48.554;10.202;2023-03-26T01:57:44;4.28;;;1.20;;
73940;SDS011;62294;48.554;10.202;2023-03-26T02:03:26;1.77;;;0.90;;
73940;SDS011;62294;48.554;10.202;2023-03-26T02:06:14;2.28;;;0.77;;
73940;SDS011;62294;48.554;10.202;2023-03-26T02:08:45;0.93;;;0.75;;
73940;SDS011;62294;48.554;10.202;2023-03-26T02:11:19;2.08;;;0.82;;
73940;SDS011;62294;48.554;10.202;2023-03-26T02:13:48;2.22;;;1.17;;
73940;SDS011;62294;48.554;10.202;2023-03-26T02:16:18;1.92;;;0.77;;
73940;SDS011;62294;48.554;10.202;2023-03-26T02:18:46;1.80;;;0.60;;
73940;SDS011;62294;48.554;10.202;2023-03-26T02:21:17;2.38;;;0.90;;
73940;SDS011;62294;48.554;10.202;2023-03-26T02:23:48;0.50;;;0.50;;
73940;SDS011;62294;48.554;10.202;2023-03-26T02:26:16;0.88;;;0.60;;
73940;SDS011;62294;48.554;10.202;2023-03-26T02:28:44;2.80;;;0.82;;
73940;SDS011;62294;48.554;10.202;2023-03-26T02:31:11;2.13;;;0.77;;
73940;SDS011;62294;48.554;10.202;2023-03-26T02:33:39;4.53;;;1.55;;
73940;SDS011;62294;48.554;10.202;2023-03-26T02:36:06;2.83;;;1.00;;
73940;SDS011;62294;48.554;10.202;2023-03-26T02:38:33;2.42;;;1.10;;
73940;SDS011;62294;48.554;10.202;2023-03-26T02:41:01;5.45;;;1.20;;
73940;SDS011;62294;48.554;10.202;2023-03-26T02:43:27;4.45;;;1.30;;
73940;SDS011;62294;48.554;10.202;2023-03-26T02:45:54;1.10;;;0.88;;
73940;SDS011;62294;48.554;10.202;2023-03-26T02:48:21;2.45;;;1.20;;
73940;SDS011;62294;48.554;10.202;2023-03-26T02:50:48;2.70;;;1.02;;
73940;SDS011;62294;48.554;10.202;2023-03-26T02:53:19;4.38;;;0.88;;
73940;SDS011;62294;48.554;10.202;2023-03-26T02:55:58;3.47;;;1.38;;
73940;SDS011;62294;48.554;10.202;2023-03-26T02:58:25;1.75;;;0.90;;
73940;SDS011;62294;48.554;10.202;2023-03-26T03:00:55;2.00;;;1.13;;
73940;SDS011;62294;48.554;10.202;2023-03-26T03:03:25;2.92;;;1.25;;
73940;SDS011;62294;48.554;10.202;2023-03-26T03:05:53;2.55;;;0.85;;
73940;SDS011;62294;48.554;10.202;2023-03-26T03:08:22;0.73;;;0.73;;
73940;SDS011;62294;48.554;10.202;2023-03-26T03:10:58;1.02;;;0.77;;
73940;SDS011;62294;48.554;10.202;2023-03-26T03:15:53;1.13;;;0.70;;
73940;SDS011;62294;48.554;10.202;2023-03-26T03:18:20;3.08;;;1.00;;
73940;SDS011;62294;48.554;10.202;2023-03-26T03:20:47;2.25;;;1.10;;
73940;SDS011;62294;48.554;10.202;2023-03-26T03:23:14;1.00;;;0.82;;
73940;SDS011;62294;48.554;10.202;2023-03-26T03:25:41;2.35;;;1.00;;
73940;SDS011;62294;48.554;10.202;2023-03-26T03:28:08;1.85;;;1.13;;
73940;SDS011;62294;48.554;10.202;2023-03-26T03:30:34;1.88;;;0.93;;
73940;SDS011;62294;48.554;10.202;2023-03-26T03:33:01;4.88;;;1.20;;
73940;SDS011;62294;48.554;10.202;2023-03-26T03:35:28;9.60;;;1.25;;
73940;SDS011;62294;48.554;10.202;2023-03-26T03:37:56;5.32;;;1.48;;
73940;SDS011;62294;48.554;10.202;2023-03-26T03:40:23;5.72;;;1.40;;
73940;SDS011;62294;48.554;10.202;2023-03-26T03:42:49;2.78;;;1.60;;
73940;SDS011;62294;48.554;10.202;2023-03-26T03:45:16;3.47;;;1.13;;
73940;SDS011;62294;48.554;10.202;2023-03-26T03:47:43;4.43;;;1.27;;
73940;SDS011;62294;48.554;10.202;2023-03-26T03:50:10;2.75;;;1.20;;
73940;SDS011;62294;48.554;10.202;2023-03-26T03:52:37;1.77;;;1.13;;
73940;SDS011;62294;48.554;10.202;2023-03-26T03:55:03;3.28;;;1.42;;
73940;SDS011;62294;48.554;10.202;2023-03-26T03:57:30;3.28;;;1.17;;
73940;SDS011;62294;48.554;10.202;2023-03-26T03:59:58;3.30;;;1.13;;
73940;SDS011;62294;48.554;10.202;2023-03-26T04:02:25;3.25;;;1.20;;
73940;SDS011;62294;48.554;10.202;2023-03-26T04:04:56;3.38;;;1.25;;
73940;SDS011;62294;48.554;10.202;2023-03-26T04:07:26;2.67;;;1.45;;
73940;SDS011;62294;48.554;10.202;2023-03-26T04:09:57;1.58;;;1.00;;
73940;SDS011;62294;48.554;10.202;2023-03-26T04:12:28;4.18;;;1.17;;
73940;SDS011;62294;48.554;10.202;2023-03-26T04:14:56;4.30;;;1.23;;
73940;SDS011;62294;48.554;10.202;2023-03-26T04:17:24;2.80;;;1.48;;
73940;SDS011;62294;48.554;10.202;2023-03-26T04:19:50;3.30;;;1.48;;
73940;SDS011;62294;48.554;10.202;2023-03-26T04:22:20;5.05;;;1.33;;
73940;SDS011;62294;48.554;10.202;2023-03-26T04:24:47;2.03;;;1.40;;
73940;SDS011;62294;48.554;10.202;2023-03-26T04:27:16;1.90;;;1.27;;
73940;SDS011;62294;48.554;10.202;2023-03-26T04:29:51;2.55;;;1.30;;
73940;SDS011;62294;48.554;10.202;2023-03-26T04:32:20;5.30;;;1.35;;
73940;SDS011;62294;48.554;10.202;2023-03-26T04:34:57;4.05;;;1.15;;
73940;SDS011;62294;48.554;10.202;2023-03-26T04:37:27;3.58;;;1.30;;
73940;SDS011;62294;48.554;10.202;2023-03-26T04:40:00;2.83;;;1.02;;
73940;SDS011;62294;48.554;10.202;2023-03-26T04:42:37;2.30;;;1.20;;
73940;SDS011;62294;48.554;10.202;2023-03-26T04:45:15;2.00;;;1.13;;
73940;SDS011;62294;48.554;10.202;2023-03-26T04:47:48;2.35;;;1.38;;
73940;SDS011;62294;48.554;10.202;2023-03-26T04:50:16;3.35;;;1.45;;
73940;SDS011;62294;48.554;10.202;2023-03-26T04:52:42;1.83;;;1.20;;
73940;SDS011;62294;48.554;10.202;2023-03-26T04:58:22;3.28;;;1.23;;
73940;SDS011;62294;48.554;10.202;2023-03-26T05:00:55;4.13;;;1.42;;
73940;SDS011;62294;48.554;10.202;2023-03-26T05:03:22;2.58;;;1.67;;
73940;SDS011;62294;48.554;10.202;2023-03-26T05:05:50;3.20;;;1.70;;
73940;SDS011;62294;48.554;10.202;2023-03-26T05:08:17;3.88;;;1.45;;
73940;SDS011;62294;48.554;10.202;2023-03-26T05:10:44;2.92;;;1.55;;
73940;SDS011;62294;48.554;10.202;2023-03-26T05:13:10;4.18;;;1.42;;
73940;SDS011;62294;48.554;10.202;2023-03-26T05:15:37;3.67;;;1.50;;
73940;SDS011;62294;48.554;10.202;2023-03-26T05:18:03;4.03;;;1.65;;
73940;SDS011;62294;48.554;10.202;2023-03-26T05:20:30;5.63;;;1.88;;
73940;SDS011;62294;48.554;10.202;2023-03-26T05:22:56;2.97;;;1.52;;
73940;SDS011;62294;48.554;10.202;2023-03-26T05:25:23;3.10;;;1.40;;
73940;SDS011;62294;48.554;10.202;2023-03-26T05:27:50;4.32;;;2.10;;
73940;SDS011;62294;48.554;10.202;2023-03-26T05:30:18;2.17;;;1.38;;
73940;SDS011;62294;48.554;10.202;2023-03-26T05:32:46;2.50;;;1.77;;
73940;SDS011;62294;48.554;10.202;2023-03-26T05:35:14;5.05;;;1.55;;
73940;SDS011;62294;48.554;10.202;2023-03-26T05:37:45;3.65;;;1.30;;
73940;SDS011;62294;48.554;10.202;2023-03-26T05:40:12;3.30;;;1.77;;
73940;SDS011;62294;48.554;10.202;2023-03-26T05:42:41;2.38;;;1.52;;
73940;SDS011;62294;48.554;10.202;2023-03-26T05:45:09;3.08;;;1.70;;
73940;SDS011;62294;48.554;10.202;2023-03-26T05:47:37;5.65;;;1.83;;
73940;SDS011;62294;48.554;10.202;2023-03-26T05:50:04;4.15;;;1.83;;
73940;SDS011;62294;48.554;10.202;2023-03-26T05:52:33;3.72;;;1.50;;
73940;SDS011;62294;48.554;10.202;2023-03-26T05:54:59;3.22;;;1.30;;
73940;SDS011;62294;48.554;10.202;2023-03-26T05:57:27;3.88;;;1.85;;
73940;SDS011;62294;48.554;10.202;2023-03-26T05:59:55;5.72;;;1.70;;
73940;SDS011;62294;48.554;10.202;2023-03-26T06:02:22;5.50;;;2.10;;
73940;SDS011;62294;48.554;10.202;2023-03-26T06:04:48;4.80;;;1.88;;
73940;SDS011;62294;48.554;10.202;2023-03-26T06:07:17;5.63;;;1.88;;
73940;SDS011;62294;48.554;10.202;2023-03-26T06:09:44;4.10;;;2.10;;
73940;SDS011;62294;48.554;10.202;2023-03-26T06:12:11;9.27;;;2.08;;
73940;SDS011;62294;48.554;10.202;2023-03-26T06:14:41;4.40;;;1.67;;
73940;SDS011;62294;48.554;10.202;2023-03-26T06:17:08;4.53;;;1.85;;
73940;SDS011;62294;48.554;10.202;2023-03-26T06:19:35;3.92;;;1.73;;
73940;SDS011;62294;48.554;10.202;2023-03-26T06:22:02;3.90;;;1.98;;
73940;SDS011;62294;48.554;10.202;2023-03-26T06:24:29;2.35;;;1.48;;
73940;SDS011;62294;48.554;10.202;2023-03-26T06:26:55;2.92;;;1.63;;
73940;SDS011;62294;48.554;10.202;2023-03-26T06:29:22;3.40;;;1.50;;
73940;SDS011;62294;48.554;10.202;2023-03-26T06:31:48;1.42;;;0.90;;
73940;SDS011;62294;48.554;10.202;2023-03-26T06:34:15;6.45;;;1.45;;
73940;SDS011;62294;48.554;10.202;2023-03-26T06:36:42;3.20;;;1.33;;
73940;SDS011;62294;48.554;10.202;2023-03-26T06:39:08;1.88;;;1.52;;
73940;SDS011;62294;48.554;10.202;2023-03-26T06:41:35;4.82;;;1.70;;
73940;SDS011;62294;48.554;10.202;2023-03-26T06:44:01;5.38;;;1.42;;
73940;SDS011;62294;48.554;10.202;2023-03-26T06:46:28;4.30;;;1.58;;
73940;SDS011;62294;48.554;10.202;2023-03-26T06:48:54;7.78;;;1.55;;
73940;SDS011;62294;48.554;10.202;2023-03-26T06:51:21;3.33;;;1.55;;
73940;SDS011;62294;48.554;10.202;2023-03-26T06:53:47;3.75;;;1.63;;
73940;SDS011;62294;48.554;10.202;2023-03-26T06:56:14;5.05;;;1.30;;
73940;SDS011;62294;48.554;10.202;2023-03-26T06:58:41;2.13;;;1.17;;
73940;SDS011;62294;48.554;10.202;2023-03-26T07:01:07;4.50;;;1.98;;
73940;SDS011;62294;48.554;10.202;2023-03-26T07:03:33;5.03;;;2.17;;
73940;SDS011;62294;48.554;10.202;2023-03-26T07:06:00;5.35;;;2.05;;
73940;SDS011;62294;48.554;10.202;2023-03-26T07:08:27;3.50;;;1.80;;
73940;SDS011;62294;48.554;10.202;2023-03-26T07:10:53;5.43;;;2.63;;
73940;SDS011;62294;48.554;10.202;2023-03-26T07:13:20;7.28;;;3.20;;
73940;SDS011;62294;48.554;10.202;2023-03-26T07:15:47;11.13;;;2.78;;
73940;SDS011;62294;48.554;10.202;2023-03-26T07:18:14;4.30;;;1.83;;
73940;SDS011;62294;48.554;10.202;2023-03-26T07:20:40;4.07;;;1.70;;
73940;SDS011;62294;48.554;10.202;2023-03-26T07:23:10;5.68;;;1.60;;
73940;SDS011;62294;48.554;10.202;2023-03-26T07:25:37;5.30;;;2.20;;
73940;SDS011;62294;48.554;10.202;2023-03-26T07:28:08;7.07;;;2.28;;
73940;SDS011;62294;48.554;10.202;2023-03-26T07:31:02;5.32;;;1.92;;
73940;SDS011;62294;48.554;10.202;2023-03-26T07:33:43;4.88;;;1.98;;
73940;SDS011;62294;48.554;10.202;2023-03-26T07:39:09;5.97;;;1.95;;
73940;SDS011;62294;48.554;10.202;2023-03-26T07:41:45;3.05;;;1.60;;
73940;SDS011;62294;48.554;10.202;2023-03-26T07:47:27;4.35;;;1.73;;
73940;SDS011;62294;48.554;10.202;2023-03-26T07:49:58;3.83;;;1.70;;
73940;SDS011;62294;48.554;10.202;2023-03-26T07:52:25;5.13;;;1.73;;
73940;SDS011;62294;48.554;10.202;2023-03-26T07:54:52;4.10;;;1.90;;
73940;SDS011;62294;48.554;10.202;2023-03-26T07:57:30;8.60;;;2.17;;
73940;SDS011;62294;48.554;10.202;2023-03-26T08:00:16;6.22;;;2.20;;
73940;SDS011;62294;48.554;10.202;2023-03-26T08:05:59;6.55;;;2.45;;
73940;SDS011;62294;48.554;10.202;2023-03-26T08:08:31;7.40;;;2.20;;
73940;SDS011;62294;48.554;10.202;2023-03-26T08:12:00;7.38;;;3.00;;
73940;SDS011;62294;48.554;10.202;2023-03-26T08:17:10;3.15;;;2.22;;
73940;SDS011;62294;48.554;10.202;2023-03-26T08:19:43;5.90;;;3.00;;
73940;SDS011;62294;48.554;10.202;2023-03-26T08:22:16;4.93;;;1.88;;
73940;SDS011;62294;48.554;10.202;2023-03-26T08:27:31;7.28;;;2.80;;
73940;SDS011;62294;48.554;10.202;2023-03-26T08:32:40;4.30;;;2.58;;
73940;SDS011;62294;48.554;10.202;2023-03-26T08:35:10;24.20;;;7.30;;
73940;SDS011;62294;48.554;10.202;2023-03-26T08:37:38;4.82;;;1.75;;
73940;SDS011;62294;48.554;10.202;2023-03-26T08:40:04;2.78;;;2.05;;
73940;SDS011;62294;48.554;10.202;2023-03-26T08:45:24;3.55;;;1.88;;
73940;SDS011;62294;48.554;10.202;2023-03-26T08:47:59;3.00;;;1.77;;
73940;SDS011;62294;48.554;10.202;2023-03-26T09:07:24;1.55;;;1.33;;
73940;SDS011;62294;48.554;10.202;2023-03-26T09:18:53;1.38;;;1.10;;
73940;SDS011;62294;48.554;10.202;2023-03-26T09:35:12;3.03;;;1.50;;
73940;SDS011;62294;48.554;10.202;2023-03-26T09:40:50;2.45;;;1.10;;
73940;SDS011;62294;48.554;10.202;2023-03-26T09:43:44;4.55;;;1.20;;
73940;SDS011;62294;48.554;10.202;2023-03-26T10:00:33;4.65;;;2.65;;
73940;SDS011;62294;48.554;10.202;2023-03-26T10:05:57;1.55;;;1.23;;
73940;SDS011;62294;48.554;10.202;2023-03-26T10:08:28;2.47;;;1.40;;
73940;SDS011;62294;48.554;10.202;2023-03-26T10:11:10;1.60;;;1.40;;
73940;SDS011;62294;48.554;10.202;2023-03-26T10:17:09;2.15;;;1.33;;
73940;SDS011;62294;48.554;10.202;2023-03-26T10:20:01;4.25;;;1.88;;
73940;SDS011;62294;48.554;10.202;2023-03-26T10:22:39;3.40;;;1.45;;
73940;SDS011;62294;48.554;10.202;2023-03-26T10:28:14;1.13;;;0.80;;
73940;SDS011;62294;48.554;10.202;2023-03-26T10:30:56;1.80;;;1.08;;
73940;SDS011;62294;48.554;10.202;2023-03-26T10:33:53;1.40;;;1.10;;
73940;SDS011;62294;48.554;10.202;2023-03-26T10:44:54;1.77;;;1.05;;
73940;SDS011;62294;48.554;10.202;2023-03-26T10:54:21;0.93;;;0.90;;
73940;SDS011;62294;48.554;10.202;2023-03-26T10:59:15;1.35;;;1.23;;
73940;SDS011;62294;48.554;10.202;2023-03-26T11:07:38;3.28;;;1.30;;
73940;SDS011;62294;48.554;10.202;2023-03-26T11:13:21;4.40;;;1.75;;
73940;SDS011;62294;48.554;10.202;2023-03-26T11:16:02;0.50;;;0.50;;
73940;SDS011;62294;48.554;10.202;2023-03-26T11:18:38;0.63;;;0.63;;
73940;SDS011;62294;48.554;10.202;2023-03-26T11:21:17;0.52;;;0.40;;
73940;SDS011;62294;48.554;10.202;2023-03-26T11:24:01;0.70;;;0.52;;
73940;SDS011;62294;48.554;10.202;2023-03-26T11:26:56;0.38;;;0.38;;
73940;SDS011;62294;48.554;10.202;2023-03-26T11:32:19;1.50;;;0.60;;
73940;SDS011;62294;48.554;10.202;2023-03-26T11:34:55;0.20;;;0.20;;
73940;SDS011;62294;48.554;10.202;2023-03-26T11:42:56;0.20;;;0.20;;
73940;SDS011;62294;48.554;10.202;2023-03-26T11:45:28;0.20;;;0.20;;
73940;SDS011;62294;48.554;10.202;2023-03-26T11:50:43;0.88;;;0.50;;
73940;SDS011;62294;48.554;10.202;2023-03-26T11:53:14;0.40;;;0.40;;
73940;SDS011;62294;48.554;10.202;2023-03-26T11:58:42;0.60;;;0.50;;
73940;SDS011;62294;48.554;10.202;2023-03-26T12:01:25;5.50;;;5.13;;
73940;SDS011;62294;48.554;10.202;2023-03-26T12:04:07;1.02;;;0.73;;
73940;SDS011;62294;48.554;10.202;2023-03-26T12:06:39;0.52;;;0.32;;
73940;SDS011;62294;48.554;10.202;2023-03-26T12:09:18;0.82;;;0.50;;
73940;SDS011;62294;48.554;10.202;2023-03-26T12:11:46;0.60;;;0.40;;
73940;SDS011;62294;48.554;10.202;2023-03-26T12:14:19;0.30;;;0.30;;
73940;SDS011;62294;48.554;10.202;2023-03-26T12:17:02;0.98;;;0.50;;
73940;SDS011;62294;48.554;10.202;2023-03-26T12:22:25;0.50;;;0.50;;
73940;SDS011;62294;48.554;10.202;2023-03-26T12:27:35;0.65;;;0.60;;
73940;SDS011;62294;48.554;10.202;2023-03-26T12:30:11;1.23;;;0.57;;
73940;SDS011;62294;48.554;10.202;2023-03-26T12:32:48;0.40;;;0.40;;
73940;SDS011;62294;48.554;10.202;2023-03-26T12:35:21;0.43;;;0.32;;
73940;SDS011;62294;48.554;10.202;2023-03-26T12:37:52;0.47;;;0.47;;
73940;SDS011;62294;48.554;10.202;2023-03-26T12:40:25;0.52;;;0.50;;
73940;SDS011;62294;48.554;10.202;2023-03-26T12:43:02;0.40;;;0.40;;
73940;SDS011;62294;48.554;10.202;2023-03-26T12:45:56;0.43;;;0.30;;
73940;SDS011;62294;48.554;10.202;2023-03-26T12:48:43;0.45;;;0.40;;
73940;SDS011;62294;48.554;10.202;2023-03-26T12:51:22;0.40;;;0.40;;
73940;SDS011;62294;48.554;10.202;2023-03-26T12:59:57;1.33;;;0.90;;
73940;SDS011;62294;48.554;10.202;2023-03-26T13:14:08;0.82;;;0.60;;
73940;SDS011;62294;48.554;10.202;2023-03-26T13:25:19;0.57;;;0.57;;
73940;SDS011;62294;48.554;10.202;2023-03-26T13:32:58;1.38;;;0.70;;
73940;SDS011;62294;48.554;10.202;2023-03-26T13:35:38;1.20;;;0.50;;
73940;SDS011;62294;48.554;10.202;2023-03-26T13:38:13;1.13;;;0.70;;
73940;SDS011;62294;48.554;10.202;2023-03-26T13:40:52;1.30;;;0.40;;
73940;SDS011;62294;48.554;10.202;2023-03-26T13:43:30;0.80;;;0.80;;
73940;SDS011;62294;48.554;10.202;2023-03-26T13:46:05;0.82;;;0.52;;
73940;SDS011;62294;48.554;10.202;2023-03-26T13:48:35;0.82;;;0.47;;
73940;SDS011;62294;48.554;10.202;2023-03-26T13:51:29;1.00;;;0.73;;
73940;SDS011;62294;48.554;10.202;2023-03-26T13:57:39;0.82;;;0.82;;
73940;SDS011;62294;48.554;10.202;2023-03-26T14:02:38;2.20;;;0.60;;
73940;SDS011;62294;48.554;10.202;2023-03-26T14:05:14;1.10;;;0.65;;
73940;SDS011;62294;48.554;10.202;2023-03-26T14:10:27;1.55;;;0.65;;
73940;SDS011;62294;48.554;10.202;2023-03-26T14:13:01;5.28;;;0.55;;
73940;SDS011;62294;48.554;10.202;2023-03-26T14:15:30;2.92;;;0.90;;
73940;SDS011;62294;48.554;10.202;2023-03-26T14:40:36;1.42;;;0.50;;
73940;SDS011;62294;48.554;10.202;2023-03-26T14:54:27;4.80;;;0.88;;
73940;SDS011;62294;48.554;10.202;2023-03-26T14:57:06;1.83;;;1.00;;
73940;SDS011;62294;48.554;10.202;2023-03-26T15:16:41;3.58;;;1.50;;
73940;SDS011;62294;48.554;10.202;2023-03-26T15:30:29;2.55;;;1.73;;
73940;SDS011;62294;48.554;10.202;2023-03-26T15:33:23;3.38;;;1.17;;
73940;SDS011;62294;48.554;10.202;2023-03-26T15:41:51;2.75;;;0.90;;
73940;SDS011;62294;48.554;10.202;2023-03-26T15:47:34;0.50;;;0.50;;
73940;SDS011;62294;48.554;10.202;2023-03-26T15:50:25;2.88;;;1.10;;
73940;SDS011;62294;48.554;10.202;2023-03-26T15:55:59;4.10;;;1.20;;
73940;SDS011;62294;48.554;10.202;2023-03-26T15:58:45;1.13;;;1.02;;
73940;SDS011;62294;48.554;10.202;2023-03-26T16:04:04;4.53;;;1.25;;
73940;SDS011;62294;48.554;10.202;2023-03-26T16:06:36;1.20;;;0.85;;
73940;SDS011;62294;48.554;10.202;2023-03-26T16:09:17;1.00;;;0.80;;
73940;SDS011;62294;48.554;10.202;2023-03-26T16:11:58;1.35;;;0.90;;
73940;SDS011;62294;48.554;10.202;2023-03-26T16:26:40;2.22;;;0.68;;
73940;SDS011;62294;48.554;10.202;2023-03-26T16:29:23;4.13;;;1.77;;
73940;SDS011;62294;48.554;10.202;2023-03-26T16:42:48;2.08;;;1.13;;
73940;SDS011;62294;48.554;10.202;2023-03-26T16:45:20;1.00;;;0.80;;
73940;SDS011;62294;48.554;10.202;2023-03-26T16:50:45;2.28;;;1.33;;
73940;SDS011;62294;48.554;10.202;2023-03-26T16:53:19;1.90;;;1.00;;
73940;SDS011;62294;48.554;10.202;2023-03-26T16:55:56;1.85;;;0.93;;
73940;SDS011;62294;48.554;10.202;2023-03-26T16:58:29;1.40;;;1.13;;
73940;SDS011;62294;48.554;10.202;2023-03-26T17:04:15;3.60;;;0.80;;
73940;SDS011;62294;48.554;10.202;2023-03-26T17:09:50;4.95;;;1.05;;
73940;SDS011;62294;48.554;10.202;2023-03-26T17:18:11;6.70;;;2.70;;
73940;SDS011;62294;48.554;10.202;2023-03-26T17:20:59;4.95;;;1.10;;
73940;SDS011;62294;48.554;10.202;2023-03-26T17:26:25;1.77;;;0.93;;
73940;SDS011;62294;48.554;10.202;2023-03-26T17:31:51;2.92;;;0.90;;
73940;SDS011;62294;48.554;10.202;2023-03-26T17:37:46;1.45;;;0.38;;
73940;SDS011;62294;48.554;10.202;2023-03-26T17:40:28;0.32;;;0.32;;
73940;SDS011;62294;48.554;10.202;2023-03-26T17:43:34;0.85;;;0.50;;
73940;SDS011;62294;48.554;10.202;2023-03-26T17:46:04;0.40;;;0.40;;
73940;SDS011;62294;48.554;10.202;2023-03-26T17:48:55;0.40;;;0.40;;
73940;SDS011;62294;48.554;10.202;2023-03-26T17:51:43;0.32;;;0.32;;
73940;SDS011;62294;48.554;10.202;2023-03-26T17:54:19;0.45;;;0.45;;
73940;SDS011;62294;48.554;10.202;2023-03-26T17:56:47;0.50;;;0.47;;
73940;SDS011;62294;48.554;10.202;2023-03-26T17:59:18;0.30;;;0.30;;
73940;SDS011;62294;48.554;10.202;2023-03-26T18:01:56;1.67;;;0.30;;
73940;SDS011;62294;48.554;10.202;2023-03-26T18:04:33;2.80;;;0.65;;
73940;SDS011;62294;48.554;10.202;2023-03-26T18:09:53;1.42;;;0.63;;
73940;SDS011;62294;48.554;10.202;2023-03-26T18:21:11;0.90;;;0.63;;
73940;SDS011;62294;48.554;10.202;2023-03-26T18:23:47;0.32;;;0.30;;
73940;SDS011;62294;48.554;10.202;2023-03-26T18:26:18;0.40;;;0.40;;
73940;SDS011;62294;48.554;10.202;2023-03-26T18:28:52;0.63;;;0.63;;
73940;SDS011;62294;48.554;10.202;2023-03-26T18:31:33;0.98;;;0.47;;
73940;SDS011;62294;48.554;10.202;2023-03-26T18:34:01;0.30;;;0.30;;
73940;SDS011;62294;48.554;10.202;2023-03-26T18:36:36;0.32;;;0.30;;
73940;SDS011;62294;48.554;10.202;2023-03-26T18:39:04;0.30;;;0.30;;
73940;SDS011;62294;48.554;10.202;2023-03-26T18:41:38;0.20;;;0.20;;
73940;SDS011;62294;48.554;10.202;2023-03-26T18:44:11;0.50;;;0.50;;
73940;SDS011;62294;48.554;10.202;2023-03-26T18:46:40;0.40;;;0.40;;
73940;SDS011;62294;48.554;10.202;2023-03-26T18:49:15;0.30;;;0.30;;
73940;SDS011;62294;48.554;10.202;2023-03-26T18:51:42;0.32;;;0.30;;
73940;SDS011;62294;48.554;10.202;2023-03-26T18:54:22;0.47;;;0.30;;
73940;SDS011;62294;48.554;10.202;2023-03-26T18:56:49;0.93;;;0.57;;
73940;SDS011;62294;48.554;10.202;2023-03-26T18:59:24;0.40;;;0.40;;
73940;SDS011;62294;48.554;10.202;2023-03-26T19:02:09;0.40;;;0.40;;
73940;SDS011;62294;48.554;10.202;2023-03-26T19:04:39;0.20;;;0.20;;
73940;SDS011;62294;48.554;10.202;2023-03-26T19:07:12;1.02;;;0.55;;
73940;SDS011;62294;48.554;10.202;2023-03-26T19:09:42;0.47;;;0.43;;
73940;SDS011;62294;48.554;10.202;2023-03-26T19:12:22;0.30;;;0.30;;
73940;SDS011;62294;48.554;10.202;2023-03-26T19:14:54;0.43;;;0.43;;
73940;SDS011;62294;48.554;10.202;2023-03-26T19:17:21;0.38;;;0.38;;
73940;SDS011;62294;48.554;10.202;2023-03-26T19:19:51;0.70;;;0.50;;
73940;SDS011;62294;48.554;10.202;2023-03-26T19:22:22;0.30;;;0.30;;
73940;SDS011;62294;48.554;10.202;2023-03-26T19:24:52;0.38;;;0.38;;
73940;SDS011;62294;48.554;10.202;2023-03-26T19:27:26;1.42;;;0.70;;
73940;SDS011;62294;48.554;10.202;2023-03-26T19:29:53;1.83;;;0.57;;
73940;SDS011;62294;48.554;10.202;2023-03-26T19:32:20;0.30;;;0.30;;
73940;SDS011;62294;48.554;10.202;2023-03-26T19:34:57;0.40;;;0.40;;
73940;SDS011;62294;48.554;10.202;2023-03-26T19:37:26;0.40;;;0.40;;
73940;SDS011;62294;48.554;10.202;2023-03-26T19:40:01;0.52;;;0.40;;
73940;SDS011;62294;48.554;10.202;2023-03-26T19:42:39;2.20;;;0.80;;
73940;SDS011;62294;48.554;10.202;2023-03-26T19:45:14;0.57;;;0.57;;
73940;SDS011;62294;48.554;10.202;2023-03-26T19:47:43;1.23;;;0.40;;
73940;SDS011;62294;48.554;10.202;2023-03-26T19:50:23;0.52;;;0.50;;
73940;SDS011;62294;48.554;10.202;2023-03-26T19:58:25;0.68;;;0.43;;
73940;SDS011;62294;48.554;10.202;2023-03-26T20:00:52;0.40;;;0.38;;
73940;SDS011;62294;48.554;10.202;2023-03-26T20:03:23;0.60;;;0.60;;
73940;SDS011;62294;48.554;10.202;2023-03-26T20:05:53;0.52;;;0.52;;
73940;SDS011;62294;48.554;10.202;2023-03-26T20:08:20;0.95;;;0.60;;
73940;SDS011;62294;48.554;10.202;2023-03-26T20:10:52;0.52;;;0.47;;
73940;SDS011;62294;48.554;10.202;2023-03-26T20:13:21;0.40;;;0.40;;
73940;SDS011;62294;48.554;10.202;2023-03-26T20:15:50;0.50;;;0.50;;
73940;SDS011;62294;48.554;10.202;2023-03-26T20:18:32;0.43;;;0.43;;
73940;SDS011;62294;48.554;10.202;2023-03-26T20:20:59;1.02;;;0.43;;
73940;SDS011;62294;48.554;10.202;2023-03-26T20:23:25;0.55;;;0.55;;
73940;SDS011;62294;48.554;10.202;2023-03-26T20:25:54;0.40;;;0.40;;
73940;SDS011;62294;48.554;10.202;2023-03-26T20:28:20;2.80;;;0.68;;
73940;SDS011;62294;48.554;10.202;2023-03-26T20:30:48;0.50;;;0.50;;